1864 NOT_NAMED (1864052S14079)


IBTrACS version v04r00. Visit IBTrACS website for data access.
Please direct all questions to the IBTrACS Q and A forum

Storm track - Intensity - Wind Radii - Intensity Data - Source Data - All data

Summary Information

Storm ID 1864052S14079
Start Feb 21 06Z
End Mar 1 06Z
ATCF IDs
Track status Best track data.

Storm track plot

Map of storm track

Intensity plots

No Intensity information for this storm


Radial wind information

No radial wind information for this storm


Position and Intensity Table

BASIN ISO_TIME_________ NATURE LAT LON
degrees north degrees east
SI 1864-02-21 06:00:00 NR -13.90 78.80
SI 09:00:00 NR -13.93 78.75
SI 12:00:00 NR -13.97 78.70
SI 15:00:00 NR -14.00 78.64
SI 18:00:00 NR -13.97 78.85
SI 21:00:00 NR -14.00 78.81
SI 1864-02-22 00:00:00 NR -14.07 78.62
SI 03:00:00 NR -14.16 78.34
SI 06:00:00 NR -14.25 78.00
SI 09:00:00 NR -14.34 77.65
SI 12:00:00 NR -14.43 77.30
SI 15:00:00 NR -14.53 76.93
SI 18:00:00 NR -14.62 76.57
SI 21:00:00 NR -14.71 76.24
SI 1864-02-23 00:00:00 NR -14.81 75.89
SI 03:00:00 NR -14.94 75.51
SI 06:00:00 NR -15.10 75.05
SI 09:00:00 NR -15.31 74.47
SI 12:00:00 NR -15.55 73.81
SI 15:00:00 NR -15.82 73.11
SI 18:00:00 NR -16.11 72.40
SI 21:00:00 NR -16.39 71.73
SI 1864-02-24 00:00:00 NR -16.69 71.05
SI 03:00:00 NR -16.99 70.38
SI 06:00:00 NR -17.30 69.70
SI 09:00:00 NR -17.60 69.00
SI 12:00:00 NR -17.92 68.29
SI 15:00:00 NR -18.24 67.56
SI 18:00:00 NR -18.57 66.81
SI 21:00:00 NR -18.94 66.02
SI 1864-02-25 00:00:00 NR -19.30 65.24
SI 03:00:00 NR -19.64 64.50
SI 06:00:00 NR -19.95 63.85
SI 09:00:00 NR -20.19 63.35
SI 12:00:00 NR -20.39 62.93
SI 15:00:00 NR -20.57 62.59
SI 18:00:00 NR -20.75 62.27
SI 21:00:00 NR -20.94 61.95
SI 1864-02-26 00:00:00 NR -21.13 61.65
SI 03:00:00 NR -21.34 61.35
SI 06:00:00 NR -21.55 61.05
SI 09:00:00 NR -21.79 60.70
SI 12:00:00 NR -22.03 60.35
SI 15:00:00 NR -22.29 60.00
SI 18:00:00 NR -22.55 59.67
SI 21:00:00 NR -22.82 59.34
SI 1864-02-27 00:00:00 NR -23.08 59.04
SI 03:00:00 NR -23.33 58.75
SI 06:00:00 NR -23.55 58.50
SI 09:00:00 NR -23.71 58.28
SI 12:00:00 NR -23.85 58.10
SI 15:00:00 NR -23.97 57.93
SI 18:00:00 NR -24.10 57.77
SI 21:00:00 NR -24.24 57.59
SI 1864-02-28 00:00:00 NR -24.40 57.40
SI 03:00:00 NR -24.55 57.22
SI 06:00:00 NR -24.70 57.05
SI 09:00:00 NR -24.85 56.88
SI 12:00:00 NR -25.00 56.72
SI 15:00:00 NR -25.14 56.56
SI 18:00:00 NR -25.29 56.41
SI 21:00:00 NR -25.43 56.25
SI 1864-02-29 00:00:00 NR -25.58 56.10
SI 03:00:00 NR -25.73 55.95
SI 06:00:00 NR -25.88 55.80
SI 09:00:00 NR -26.03 55.65
SI 12:00:00 NR -26.15 55.52
SI 15:00:00 NR -26.26 55.40
SI 18:00:00 NR -26.35 55.29
SI 21:00:00 NR -26.45 55.18
SI 1864-03-01 00:00:00 NR -26.53 55.09
SI 03:00:00 NR -26.62 54.99
SI 06:00:00 NR -26.70 54.90

Source Information

Agency Information
USA
TOKYO
CMA
HKO
NEWDELHI
REUNION WMO-Best-Tracks.txt:Line=563:xxxx864081
BOM
NADI
WELLINGTON
DS824
TD9636 cons_worldwide_trop_cyclone_18710101-19891231-005:Line=750
TD9635
NEUMANN
MLC

All available IBTrACS Data

SEASON BASIN SUBBASIN ISO_TIME_________ NATURE LAT LON WMO AGENCY DIST2LAND LANDFALL IFLAG USA SSHS REUNION LAT REUNION LON REUNION TYPE REUNION TNUM TD9636 LAT TD9636 LON TD9636 STAGE STORM SPEED STORM DIR
Year degrees north degrees east km km 1 degrees north degrees east 1 degrees north degrees east kts degrees
1864 SI MM 1864-02-21 06:00:00 NR -13.90 78.80 reunion 2227 2227 _____O________ -1 -13.90 78.80 99 9.90 1 233
1864 SI MM 09:00:00 NR -13.93 78.75 2227 2227 _____P________ -1 -13.93 78.75 99 1 235
1864 SI MM 12:00:00 NR -13.97 78.70 2239 2239 _____P________ -1 -13.97 78.70 99 1 238
1864 SI MM 15:00:00 NR -14.00 78.64 2240 2238 _____P________ -1 -14.00 78.64 99 1 91
1864 SI MM 18:00:00 NR -13.97 78.85 2238 2237 _____P____O___ -1 -14.04 78.56 99 -13.70 80.00 7 2 90
1864 SI MM 21:00:00 NR -14.00 78.81 2238 2238 _____P____P___ -1 -14.08 78.46 99 -13.86 79.49 7 2 246
1864 SI MM 1864-02-22 00:00:00 NR -14.07 78.62 2251 2251 _____P____P___ -1 -14.11 78.34 99 -14.01 78.98 7 5 251
1864 SI MM 03:00:00 NR -14.16 78.34 2266 2249 _____P____P___ -1 -14.16 78.19 99 -14.16 78.48 7 6 253
1864 SI MM 06:00:00 NR -14.25 78.00 reunion 2249 2215 _____O____O___ -1 -14.20 78.00 99 9.90 -14.30 78.00 7 7 254
1864 SI MM 09:00:00 NR -14.34 77.65 2215 2170 _____P____P___ -1 -14.25 77.77 99 -14.44 77.53 7 7 255
1864 SI MM 12:00:00 NR -14.43 77.30 2170 2136 _____P____P___ -1 -14.30 77.50 99 -14.56 77.09 7 7 255
1864 SI MM 15:00:00 NR -14.53 76.93 2126 2092 _____P____P___ -1 -14.37 77.19 99 -14.69 76.68 7 7 255
1864 SI MM 18:00:00 NR -14.62 76.57 2092 2058 _____P____O___ -1 -14.45 76.84 99 -14.80 76.30 7 7 254
1864 SI MM 21:00:00 NR -14.71 76.24 2048 2013 _____P____P___ -1 -14.55 76.44 99 -14.88 76.03 7 7 254
1864 SI MM 1864-02-23 00:00:00 NR -14.81 75.89 2013 1969 _____P____P___ -1 -14.67 76.01 99 -14.96 75.78 7 7 252
1864 SI MM 03:00:00 NR -14.94 75.51 1969 1921 _____P____P___ -1 -14.82 75.53 99 -15.06 75.49 7 9 251
1864 SI MM 06:00:00 NR -15.10 75.05 reunion 1921 1853 _____O____O___ -1 -15.00 75.00 99 9.90 -15.20 75.10 7 11 250
1864 SI MM 09:00:00 NR -15.31 74.47 1853 1785 _____P____P___ -1 -15.21 74.44 99 -15.40 74.50 7 13 249
1864 SI MM 12:00:00 NR -15.55 73.81 1771 1703 _____P____P___ -1 -15.46 73.83 99 -15.65 73.80 7 14 249
1864 SI MM 15:00:00 NR -15.82 73.11 1693 1611 _____P____P___ -1 -15.73 73.18 99 -15.92 73.04 7 15 248
1864 SI MM 18:00:00 NR -16.11 72.40 1611 1540 _____P____O___ -1 -16.02 72.49 99 -16.20 72.30 7 15 247
1864 SI MM 21:00:00 NR -16.39 71.73 1529 1458 _____P____P___ -1 -16.32 71.79 99 -16.46 71.66 7 14 246
1864 SI MM 1864-02-24 00:00:00 NR -16.69 71.05 1458 1377 _____P____P___ -1 -16.64 71.06 99 -16.73 71.05 7 14 245
1864 SI MM 03:00:00 NR -16.99 70.38 1377 1296 _____P____P___ -1 -16.97 70.33 99 -17.01 70.43 7 14 245
1864 SI MM 06:00:00 NR -17.30 69.70 reunion 1296 1215 _____O____O___ -1 -17.30 69.60 99 9.90 -17.30 69.80 7 15 245
1864 SI MM 09:00:00 NR -17.60 69.00 1215 1135 _____P____P___ -1 -17.63 68.86 99 -17.58 69.14 7 15 245
1864 SI MM 12:00:00 NR -17.92 68.29 1135 1055 _____P____P___ -1 -17.97 68.11 99 -17.87 68.46 7 15 245
1864 SI MM 15:00:00 NR -18.24 67.56 1055 972 _____P____P___ -1 -18.31 67.36 99 -18.17 67.75 7 15 245
1864 SI MM 18:00:00 NR -18.57 66.81 962 883 _____P____O___ -1 -18.65 66.63 99 -18.50 67.00 7 16 244
1864 SI MM 21:00:00 NR -18.94 66.02 872 792 _____P____P___ -1 -18.98 65.91 99 -18.89 66.14 7 17 244
1864 SI MM 1864-02-25 00:00:00 NR -19.30 65.24 782 704 _____P____P___ -1 -19.31 65.23 99 -19.29 65.25 7 16 244
1864 SI MM 03:00:00 NR -19.64 64.50 704 638 _____P____P___ -1 -19.61 64.58 99 -19.67 64.41 7 15 243
1864 SI MM 06:00:00 NR -19.95 63.85 reunion 638 584 _____O____O___ -1 -19.90 64.00 99 9.90 -20.00 63.70 7 12 243
1864 SI MM 09:00:00 NR -20.19 63.35 573 542 _____P____P___ -1 -20.15 63.49 99 -20.23 63.20 7 10 243
1864 SI MM 12:00:00 NR -20.39 62.93 531 500 _____P____P___ -1 -20.38 63.03 99 -20.40 62.84 7 8 242
1864 SI MM 15:00:00 NR -20.57 62.59 501 470 _____P____P___ -1 -20.59 62.62 99 -20.55 62.56 7 7 240
1864 SI MM 18:00:00 NR -20.75 62.27 470 442 _____P____O___ -1 -20.80 62.25 99 -20.70 62.30 7 7 238
1864 SI MM 21:00:00 NR -20.94 61.95 442 415 _____P____P___ -1 -20.99 61.91 99 -20.88 62.00 7 7 236
1864 SI MM 1864-02-26 00:00:00 NR -21.13 61.65 405 390 _____P____P___ -1 -21.19 61.59 99 -21.08 61.71 7 7 235
1864 SI MM 03:00:00 NR -21.34 61.35 390 368 _____P____P___ -1 -21.39 61.29 99 -21.28 61.41 7 7 233
1864 SI MM 06:00:00 NR -21.55 61.05 reunion 368 343 _____O____O___ -1 -21.60 61.00 99 9.90 -21.50 61.10 7 8 233
1864 SI MM 09:00:00 NR -21.79 60.70 343 326 _____P____P___ -1 -21.84 60.66 99 -21.73 60.74 7 8 233
1864 SI MM 12:00:00 NR -22.03 60.35 317 311 _____P____P___ -1 -22.09 60.34 99 -21.98 60.36 7 8 232
1864 SI MM 15:00:00 NR -22.29 60.00 311 303 _____P____P___ -1 -22.34 60.03 99 -22.23 59.97 7 8 231
1864 SI MM 18:00:00 NR -22.55 59.67 304 302 _____P____O___ -1 -22.59 59.73 99 -22.50 59.60 7 8 229
1864 SI MM 21:00:00 NR -22.82 59.34 305 305 _____P____P___ -1 -22.84 59.45 99 -22.79 59.24 7 8 227
1864 SI MM 1864-02-27 00:00:00 NR -23.08 59.04 320 320 _____P____P___ -1 -23.07 59.18 99 -23.09 58.89 7 7 227
1864 SI MM 03:00:00 NR -23.33 58.75 332 329 _____P____P___ -1 -23.30 58.93 99 -23.36 58.57 7 7 226
1864 SI MM 06:00:00 NR -23.55 58.50 reunion 345 354 _____O____O___ -1 -23.50 58.70 99 9.90 -23.60 58.30 7 6 228
1864 SI MM 09:00:00 NR -23.71 58.28 363 361 _____P____P___ -1 -23.67 58.48 99 -23.76 58.09 7 5 231
1864 SI MM 12:00:00 NR -23.85 58.10 374 368 _____P____P___ -1 -23.82 58.29 99 -23.88 57.91 7 4 231
1864 SI MM 15:00:00 NR -23.97 57.93 370 364 _____P____P___ -1 -23.96 58.11 99 -23.98 57.76 7 4 231
1864 SI MM 18:00:00 NR -24.10 57.77 374 368 _____P____O___ -1 -24.09 57.94 99 -24.10 57.60 7 4 230
1864 SI MM 21:00:00 NR -24.24 57.59 372 372 _____P____P___ -1 -24.22 57.78 99 -24.27 57.40 7 4 228
1864 SI MM 1864-02-28 00:00:00 NR -24.40 57.40 382 377 _____P____P___ -1 -24.34 57.62 99 -24.45 57.19 7 5 227
1864 SI MM 03:00:00 NR -24.55 57.22 383 383 _____P____P___ -1 -24.47 57.46 99 -24.63 56.98 7 4 226
1864 SI MM 06:00:00 NR -24.70 57.05 reunion 399 395 _____O____O___ -1 -24.60 57.30 99 9.90 -24.80 56.80 7 4 226
1864 SI MM 09:00:00 NR -24.85 56.88 413 409 _____P____P___ -1 -24.76 57.11 99 -24.94 56.65 7 4 225
1864 SI MM 12:00:00 NR -25.00 56.72 417 417 _____P____P___ -1 -24.93 56.91 99 -25.06 56.53 7 4 225
1864 SI MM 15:00:00 NR -25.14 56.56 425 425 _____P____P___ -1 -25.10 56.71 99 -25.18 56.41 7 4 224
1864 SI MM 18:00:00 NR -25.29 56.41 443 441 _____P____O___ -1 -25.27 56.51 99 -25.30 56.30 7 4 224
1864 SI MM 21:00:00 NR -25.43 56.25 452 451 _____P____P___ -1 -25.44 56.32 99 -25.42 56.18 7 4 223
1864 SI MM 1864-02-29 00:00:00 NR -25.58 56.10 472 471 _____P____P___ -1 -25.60 56.14 99 -25.55 56.06 7 4 222
1864 SI MM 03:00:00 NR -25.73 55.95 482 481 _____P____P___ -1 -25.76 55.96 99 -25.67 55.93 7 4 222
1864 SI MM 06:00:00 NR -25.88 55.80 reunion 503 503 _____O____O___ -1 -25.90 55.80 99 9.90 -25.80 55.80 7 4 222
1864 SI MM 09:00:00 NR -26.03 55.65 514 514 _____P________ -1 -26.03 55.65 99 7 4 223
1864 SI MM 12:00:00 NR -26.15 55.52 525 525 _____P________ -1 -26.15 55.52 99 7 3 225
1864 SI MM 15:00:00 NR -26.26 55.40 548 548 _____P________ -1 -26.26 55.40 99 7 3 225
1864 SI MM 18:00:00 NR -26.35 55.29 559 559 _____P________ -1 -26.35 55.29 99 3 225
1864 SI MM 21:00:00 NR -26.45 55.18 560 560 _____P________ -1 -26.45 55.18 99 3 226
1864 SI MM 1864-03-01 00:00:00 NR -26.53 55.09 572 572 _____P________ -1 -26.53 55.09 99 2 226
1864 SI MM 03:00:00 NR -26.62 54.99 584 584 _____P________ -1 -26.62 54.99 99 2 226
1864 SI MM 06:00:00 NR -26.70 54.90 reunion 596 _____O________ -1 -26.70 54.90 99 9.90 2 223